Time;durP1;ratioP1;P1;durP2;ratioP2;P2;SDS_P1;SDS_P2;PMS_P1;PMS_P2;Temp;Humidity;BMP_temperature;BMP_pressure;BME280_temperature;BME280_humidity;BME280_pressure;Samples;Min_cycle;Max_cycle;Signal;HPM_P1;HPM_P2
2023/09/28 00:02:18;;;;;;;21.63;20.87;;;16.00;99.90;;;;;;5064325;28;20266;-64
2023/09/28 00:04:44;;;;;;;31.27;30.07;;;16.00;99.90;;;;;;5067527;28;20214;-65
2023/09/28 00:07:12;;;;;;;27.83;26.83;;;16.10;99.90;;;;;;5071106;28;20207;-65
2023/09/28 00:09:38;;;;;;;27.05;25.95;;;16.10;99.90;;;;;;5070098;28;20290;-66
2023/09/28 00:12:04;;;;;;;21.00;20.30;;;16.10;99.90;;;;;;5072665;28;20241;-66
2023/09/28 00:14:31;;;;;;;29.57;28.47;;;16.10;99.90;;;;;;5074700;28;20207;-66
2023/09/28 00:16:57;;;;;;;31.63;30.50;;;16.10;99.90;;;;;;5075976;28;20271;-66
2023/09/28 00:19:24;;;;;;;18.58;17.98;;;16.10;99.90;;;;;;5077448;28;20308;-65
2023/09/28 00:21:50;;;;;;;24.27;23.38;;;16.10;99.90;;;;;;5059720;28;20238;-66
2023/09/28 00:24:19;;;;;;;16.90;16.30;;;16.20;99.90;;;;;;5075961;28;20207;-66
2023/09/28 00:26:47;;;;;;;19.90;19.20;;;16.20;99.90;;;;;;5074907;28;20249;-65
2023/09/28 00:29:14;;;;;;;18.93;18.23;;;16.20;99.90;;;;;;5068406;28;20235;-65
2023/09/28 00:31:40;;;;;;;20.40;19.70;;;16.20;99.90;;;;;;5052307;28;20319;-65
2023/09/28 00:34:06;;;;;;;19.07;18.40;;;16.20;99.90;;;;;;5059684;28;20673;-65
2023/09/28 00:36:32;;;;;;;22.63;21.83;;;16.20;99.90;;;;;;5083242;28;20250;-65
2023/09/28 00:39:00;;;;;;;23.27;22.37;;;16.20;99.90;;;;;;5086060;28;20196;-64
2023/09/28 00:41:28;;;;;;;33.37;31.80;;;16.20;99.90;;;;;;5084912;28;20238;-65
2023/09/28 00:43:55;;;;;;;29.53;28.50;;;16.20;99.90;;;;;;5081551;28;20253;-65
2023/09/28 00:46:21;;;;;;;20.93;20.17;;;16.30;99.90;;;;;;5071282;28;20211;-65
2023/09/28 00:48:58;;;;;;;24.63;23.73;;;16.40;99.90;;;;;;5069378;28;20227;-64
2023/09/28 00:51:27;;;;;;;29.77;28.67;;;16.40;99.90;;;;;;5070416;28;20231;-66
2023/09/28 00:53:56;;;;;;;30.00;28.97;;;16.50;99.90;;;;;;5070837;28;20203;-66
2023/09/28 00:56:23;;;;;;;24.00;23.20;;;16.30;99.90;;;;;;5069860;28;20241;-64
2023/09/28 00:58:53;;;;;;;23.57;22.77;;;16.40;99.90;;;;;;5071189;28;20208;-66
2023/09/28 01:01:20;;;;;;;25.30;24.40;;;16.40;99.90;;;;;;5061517;28;20223;-64
2023/09/28 01:03:46;;;;;;;26.67;25.63;;;16.30;99.90;;;;;;5074911;28;20211;-65
2023/09/28 01:06:13;;;;;;;25.67;24.77;;;16.30;99.90;;;;;;5073979;28;20203;-66
2023/09/28 01:08:39;;;;;;;26.23;25.33;;;16.30;99.90;;;;;;5071861;28;20239;-66
2023/09/28 01:11:08;;;;;;;25.17;24.27;;;16.30;99.90;;;;;;5054628;28;20228;-65
2023/09/28 01:13:34;;;;;;;26.40;25.40;;;16.30;99.90;;;;;;5053172;28;20899;-65
2023/09/28 01:16:02;;;;;;;24.95;24.05;;;16.30;99.90;;;;;;5052907;28;20222;-65
2023/09/28 01:18:28;;;;;;;25.07;24.20;;;16.40;99.90;;;;;;5061617;28;20207;-66
2023/09/28 01:20:55;;;;;;;22.77;21.97;;;16.30;99.90;;;;;;5070289;28;20776;-64
2023/09/28 01:23:23;;;;;;;23.57;22.77;;;16.40;99.90;;;;;;5076139;28;20553;-66
2023/09/28 01:25:50;;;;;;;24.67;23.77;;;16.40;99.90;;;;;;5075024;28;20306;-65
2023/09/28 01:28:16;;;;;;;27.27;26.30;;;16.40;99.90;;;;;;5078488;28;20286;-66
2023/09/28 01:30:43;;;;;;;26.17;25.27;;;16.40;99.90;;;;;;5077211;28;20249;-64
2023/09/28 01:33:10;;;;;;;26.70;25.77;;;16.40;99.90;;;;;;5083813;28;20234;-66
2023/09/28 01:35:37;;;;;;;25.13;24.23;;;16.40;99.90;;;;;;5077485;28;20211;-66
2023/09/28 01:38:16;;;;;;;28.80;27.70;;;16.40;99.90;;;;;;5074389;28;20271;-65
2023/09/28 01:40:45;;;;;;;21.85;21.10;;;16.30;99.90;;;;;;5074433;28;20226;-65
2023/09/28 01:43:11;;;;;;;21.80;21.00;;;16.20;99.90;;;;;;5076015;28;20207;-66
2023/09/28 01:45:38;;;;;;;23.67;22.77;;;16.20;99.90;;;;;;5076600;28;20230;-65
2023/09/28 01:48:04;;;;;;;24.10;23.23;;;16.10;99.90;;;;;;5074255;28;20223;-66
2023/09/28 01:50:31;;;;;;;25.67;24.77;;;16.10;99.90;;;;;;5073315;28;20250;-66
2023/09/28 01:52:57;;;;;;;24.38;23.58;;;16.10;99.90;;;;;;5073465;28;20215;-65
2023/09/28 01:55:24;;;;;;;22.77;21.97;;;16.10;99.90;;;;;;5073483;28;20207;-67
2023/09/28 01:57:51;;;;;;;23.03;22.23;;;16.10;99.90;;;;;;5073857;28;20211;-66
2023/09/28 02:00:20;;;;;;;23.63;22.83;;;16.10;99.90;;;;;;5073102;28;20310;-66
2023/09/28 02:02:47;;;;;;;22.50;21.70;;;16.00;99.90;;;;;;5073218;28;20211;-66
2023/09/28 02:05:17;;;;;;;19.77;19.07;;;16.10;99.90;;;;;;5072439;28;20207;-66
2023/09/28 02:07:44;;;;;;;21.20;20.48;;;16.10;99.90;;;;;;5071761;28;20350;-65
2023/09/28 02:10:11;;;;;;;21.33;20.53;;;16.10;99.90;;;;;;5070985;28;20195;-64
2023/09/28 02:12:39;;;;;;;22.10;21.30;;;16.10;99.90;;;;;;5072034;28;20211;-66
2023/09/28 02:15:09;;;;;;;22.23;21.43;;;16.10;99.90;;;;;;5071587;28;20203;-67
2023/09/28 02:17:36;;;;;;;24.83;23.93;;;16.00;99.90;;;;;;5071332;28;20214;-65
2023/09/28 02:20:08;;;;;;;24.93;24.07;;;16.00;99.90;;;;;;5071496;28;20200;-66
2023/09/28 02:22:34;;;;;;;28.30;27.20;;;15.90;99.90;;;;;;5071996;28;20324;-66
2023/09/28 02:25:01;;;;;;;24.57;23.67;;;16.00;99.90;;;;;;5072016;28;20229;-65
2023/09/28 02:27:27;;;;;;;22.03;21.23;;;16.00;99.90;;;;;;5070988;28;20215;-65
2023/09/28 02:29:54;;;;;;;21.60;20.80;;;16.00;99.90;;;;;;5071787;28;20261;-64
2023/09/28 02:32:21;;;;;;;23.70;22.90;;;16.00;99.90;;;;;;5072485;28;20235;-65
2023/09/28 02:34:48;;;;;;;18.97;18.33;;;16.10;99.90;;;;;;5071448;28;20299;-66
2023/09/28 02:37:13;;;;;;;31.60;29.93;;;16.10;99.90;;;;;;5071481;28;20215;-66
2023/09/28 02:39:41;;;;;;;19.47;18.77;;;16.20;99.90;;;;;;5071583;28;20210;-65
2023/09/28 02:42:09;;;;;;;14.33;13.83;;;16.20;99.90;;;;;;5072248;28;20230;-66
2023/09/28 02:44:36;;;;;;;14.63;14.13;;;16.30;99.90;;;;;;5070887;28;20235;-67
2023/09/28 02:47:05;;;;;;;15.00;14.40;;;16.30;99.90;;;;;;5071472;28;20217;-64
2023/09/28 02:49:33;;;;;;;14.97;14.47;;;16.40;99.90;;;;;;5071264;28;20211;-66
2023/09/28 02:52:00;;;;;;;14.63;14.13;;;16.40;99.90;;;;;;5071897;28;20337;-66
2023/09/28 02:54:29;;;;;;;14.60;14.10;;;16.60;99.90;;;;;;5070532;28;20203;-65
2023/09/28 02:56:55;;;;;;;14.37;13.87;;;16.50;99.90;;;;;;5071424;28;20239;-65
2023/09/28 02:59:23;;;;;;;15.65;15.05;;;16.60;99.90;;;;;;5070922;28;20228;-66
2023/09/28 03:01:49;;;;;;;15.23;14.73;;;16.70;99.90;;;;;;5070589;28;20246;-65
2023/09/28 03:04:16;;;;;;;15.65;15.15;;;16.70;99.90;;;;;;5070718;28;20275;-65
2023/09/28 03:06:44;;;;;;;15.43;14.83;;;16.70;99.90;;;;;;5070808;28;20207;-65
2023/09/28 03:09:12;;;;;;;14.77;14.27;;;16.70;99.90;;;;;;5070326;28;20219;-66
2023/09/28 03:11:39;;;;;;;14.03;13.53;;;16.70;99.90;;;;;;5071195;28;20296;-66
2023/09/28 03:14:06;;;;;;;14.63;14.03;;;16.70;99.90;;;;;;5074298;28;20203;-64
2023/09/28 03:16:32;;;;;;;16.10;15.50;;;16.70;99.90;;;;;;5073557;28;20586;-64
2023/09/28 03:19:00;;;;;;;15.13;14.63;;;16.70;99.90;;;;;;5070319;28;20199;-67
2023/09/28 03:21:29;;;;;;;17.30;16.70;;;16.60;99.90;;;;;;5069340;28;20667;-65
2023/09/28 03:23:58;;;;;;;16.00;15.43;;;16.60;99.90;;;;;;5070545;28;20265;-66
2023/09/28 03:26:26;;;;;;;16.60;16.00;;;16.60;99.90;;;;;;5071082;28;20211;-65
2023/09/28 03:28:52;;;;;;;16.83;16.23;;;16.40;99.90;;;;;;5069895;28;20223;-65
2023/09/28 03:31:20;;;;;;;16.50;15.90;;;16.40;99.90;;;;;;5070700;28;20234;-66
2023/09/28 03:33:46;;;;;;;16.70;16.13;;;16.40;99.90;;;;;;5071345;28;20203;-65
2023/09/28 03:36:13;;;;;;;14.77;14.27;;;16.40;99.90;;;;;;5070261;28;20207;-65
2023/09/28 03:38:40;;;;;;;18.13;17.50;;;16.50;99.90;;;;;;5072036;28;20207;-65
2023/09/28 03:41:08;;;;;;;15.73;15.23;;;16.40;99.90;;;;;;5069486;28;20230;-65
2023/09/28 03:43:35;;;;;;;14.00;13.50;;;16.40;99.90;;;;;;5072471;28;20207;-66
2023/09/28 03:46:03;;;;;;;16.13;15.57;;;16.40;99.90;;;;;;5072150;28;20214;-67
2023/09/28 03:48:30;;;;;;;20.20;19.33;;;16.30;99.90;;;;;;5072255;28;20227;-66
2023/09/28 03:50:57;;;;;;;17.33;16.70;;;16.30;99.90;;;;;;5054456;28;20259;-66
2023/09/28 03:53:24;;;;;;;19.40;18.73;;;16.20;99.90;;;;;;5061651;28;20211;-66
2023/09/28 03:55:51;;;;;;;16.27;15.73;;;16.20;99.90;;;;;;5074442;28;20229;-65
2023/09/28 03:58:19;;;;;;;17.70;17.08;;;16.30;99.90;;;;;;5071353;28;20219;-65
2023/09/28 04:00:46;;;;;;;24.53;23.63;;;16.20;99.90;;;;;;5073365;28;20219;-65
2023/09/28 04:03:12;;;;;;;21.37;20.67;;;16.20;99.90;;;;;;5074327;28;20207;-65
2023/09/28 04:05:39;;;;;;;19.77;19.08;;;16.20;99.90;;;;;;5076409;28;20301;-66
2023/09/28 04:08:07;;;;;;;21.47;20.67;;;16.10;99.90;;;;;;5069861;28;20210;-65
2023/09/28 04:10:34;;;;;;;19.73;19.03;;;16.00;99.90;;;;;;5071413;28;20306;-66
2023/09/28 04:13:01;;;;;;;21.00;20.23;;;16.00;99.90;;;;;;5076626;28;20211;-65
2023/09/28 04:15:30;;;;;;;18.13;17.43;;;16.00;99.90;;;;;;5074168;28;20211;-65
2023/09/28 04:17:57;;;;;;;39.73;37.90;;;15.90;99.90;;;;;;5073079;28;20238;-65
2023/09/28 04:20:24;;;;;;;15.23;14.73;;;15.90;99.90;;;;;;5075344;28;20329;-65
2023/09/28 04:22:51;;;;;;;29.63;28.50;;;15.90;99.90;;;;;;5075009;28;20302;-66
2023/09/28 04:25:20;;;;;;;17.60;17.00;;;15.90;99.90;;;;;;5074074;28;20715;-66
2023/09/28 04:27:48;;;;;;;23.63;22.73;;;15.90;99.90;;;;;;5075695;28;20203;-65
2023/09/28 04:30:14;;;;;;;58.20;54.83;;;16.00;99.90;;;;;;5066011;28;20702;-65
2023/09/28 04:32:43;;;;;;;20.20;19.50;;;15.90;99.90;;;;;;5059788;28;20212;-65
2023/09/28 04:35:13;;;;;;;16.73;16.13;;;15.90;99.90;;;;;;5073216;28;20234;-66
2023/09/28 04:37:39;;;;;;;16.03;15.43;;;15.90;99.90;;;;;;5076450;28;20229;-66
2023/09/28 04:40:09;;;;;;;19.17;18.50;;;15.90;99.90;;;;;;5064340;28;20542;-65
2023/09/28 04:42:36;;;;;;;17.17;16.47;;;15.90;99.90;;;;;;5056536;28;20726;-66
2023/09/28 04:45:04;;;;;;;15.85;15.27;;;16.00;99.90;;;;;;5057097;28;20208;-65
2023/09/28 04:47:31;;;;;;;15.23;14.73;;;15.90;99.90;;;;;;5057423;28;20290;-65
2023/09/28 04:50:00;;;;;;;14.55;14.05;;;15.90;99.90;;;;;;5069510;28;20313;-64
2023/09/28 04:52:27;;;;;;;14.10;13.60;;;15.90;99.90;;;;;;5074228;28;20207;-66
2023/09/28 04:54:53;;;;;;;16.50;15.90;;;16.00;99.90;;;;;;5071114;28;20207;-65
2023/09/28 04:57:20;;;;;;;16.08;15.52;;;15.90;99.90;;;;;;5073784;28;20688;-64
2023/09/28 04:59:47;;;;;;;15.10;14.60;;;15.90;99.90;;;;;;5071946;28;20736;-66
2023/09/28 05:02:14;;;;;;;18.23;17.47;;;15.90;99.90;;;;;;5072660;28;20231;-65
2023/09/28 05:04:41;;;;;;;21.50;20.67;;;15.90;99.90;;;;;;5073274;28;20234;-65
2023/09/28 05:07:09;;;;;;;24.08;23.08;;;15.80;99.90;;;;;;5072815;28;20206;-65
2023/09/28 05:09:38;;;;;;;19.35;18.65;;;15.80;99.90;;;;;;5072194;28;20417;-63
2023/09/28 05:12:05;;;;;;;17.67;17.07;;;15.80;99.90;;;;;;5072810;28;20309;-65
2023/09/28 05:14:32;;;;;;;15.88;15.35;;;15.80;99.90;;;;;;5068985;28;20300;-62
2023/09/28 05:16:59;;;;;;;18.27;17.63;;;15.80;99.90;;;;;;5073726;28;20215;-65
2023/09/28 05:19:26;;;;;;;17.27;16.67;;;16.00;99.90;;;;;;5072312;28;20200;-64
2023/09/28 05:21:53;;;;;;;18.85;18.23;;;15.90;99.90;;;;;;5073178;28;20227;-64
2023/09/28 05:24:21;;;;;;;16.67;16.10;;;15.90;99.90;;;;;;5074733;28;20700;-66
2023/09/28 05:26:49;;;;;;;16.77;16.20;;;15.80;99.90;;;;;;5074775;28;20236;-66
2023/09/28 05:29:16;;;;;;;14.30;13.80;;;15.90;99.90;;;;;;5068623;28;20243;-66
2023/09/28 05:31:43;;;;;;;15.00;14.50;;;16.00;99.90;;;;;;5055358;28;20223;-65
2023/09/28 05:34:10;;;;;;;16.10;15.53;;;16.00;99.90;;;;;;5056146;28;20208;-66
2023/09/28 05:36:37;;;;;;;17.87;17.27;;;16.00;99.90;;;;;;5053914;28;20212;-65
2023/09/28 05:39:04;;;;;;;18.17;17.50;;;15.90;99.90;;;;;;5059372;28;20196;-66
2023/09/28 05:41:32;;;;;;;20.33;19.52;;;15.90;99.90;;;;;;5066275;28;20368;-66
2023/09/28 05:44:00;;;;;;;17.87;17.23;;;15.80;99.90;;;;;;5072711;28;20219;-65
2023/09/28 05:46:26;;;;;;;18.13;17.52;;;15.80;99.90;;;;;;5072123;28;20211;-66
2023/09/28 05:48:53;;;;;;;19.50;18.80;;;15.80;99.90;;;;;;5071723;28;20223;-66
2023/09/28 05:51:20;;;;;;;18.88;18.20;;;15.70;99.90;;;;;;5076196;28;20223;-66
2023/09/28 05:53:47;;;;;;;19.60;18.90;;;15.70;99.90;;;;;;5077953;28;20283;-66
2023/09/28 05:56:14;;;;;;;19.43;18.73;;;15.60;99.90;;;;;;5085109;28;20203;-67
2023/09/28 05:58:42;;;;;;;20.97;20.20;;;15.60;99.90;;;;;;5082589;28;20226;-67
2023/09/28 06:01:13;;;;;;;27.10;26.00;;;15.50;99.90;;;;;;5088962;28;20357;-67
2023/09/28 06:03:40;;;;;;;19.02;18.33;;;15.50;99.90;;;;;;5082277;28;20203;-66
2023/09/28 06:06:15;;;;;;;23.50;22.60;;;15.50;99.90;;;;;;5088446;28;20207;-67
2023/09/28 06:08:43;;;;;;;21.07;20.37;;;15.50;99.90;;;;;;5086267;28;20217;-67
2023/09/28 06:11:12;;;;;;;24.97;24.03;;;15.50;99.90;;;;;;5082373;28;20237;-65
2023/09/28 06:13:40;;;;;;;26.65;25.65;;;15.40;99.90;;;;;;5079922;28;20828;-66
2023/09/28 06:16:11;;;;;;;22.88;22.08;;;15.40;99.90;;;;;;5076319;28;20214;-66
2023/09/28 06:18:37;;;;;;;24.03;23.23;;;15.40;99.90;;;;;;5074239;28;20559;-65
2023/09/28 06:21:04;;;;;;;20.45;19.75;;;15.40;99.90;;;;;;5054697;28;20319;-66
2023/09/28 06:23:32;;;;;;;19.60;18.90;;;15.50;99.90;;;;;;5052568;28;20219;-66
2023/09/28 06:25:59;;;;;;;19.40;18.70;;;15.50;99.90;;;;;;5058147;28;20218;-66
2023/09/28 06:28:26;;;;;;;19.27;18.58;;;15.50;99.90;;;;;;5071635;28;20214;-66
2023/09/28 06:30:53;;;;;;;17.20;16.60;;;15.50;99.90;;;;;;5071842;28;20281;-66
2023/09/28 06:33:22;;;;;;;20.17;19.37;;;15.50;99.90;;;;;;5072793;28;20237;-66
2023/09/28 06:35:50;;;;;;;15.52;14.93;;;15.60;99.90;;;;;;5072101;28;20264;-66
2023/09/28 06:38:16;;;;;;;19.37;18.67;;;15.70;99.90;;;;;;5072910;28;20211;-68
2023/09/28 06:40:44;;;;;;;25.67;24.65;;;15.90;99.90;;;;;;5070847;28;20228;-67
2023/09/28 06:43:11;;;;;;;14.90;14.40;;;15.80;99.90;;;;;;5072321;28;20618;-67
2023/09/28 06:45:38;;;;;;;14.33;13.83;;;15.80;99.90;;;;;;5072326;28;20233;-67
2023/09/28 06:48:07;;;;;;;14.27;13.77;;;15.90;99.90;;;;;;5067925;28;20218;-65
2023/09/28 06:50:35;;;;;;;14.75;14.25;;;16.10;99.90;;;;;;5056686;28;20228;-65
2023/09/28 06:53:03;;;;;;;14.77;14.23;;;16.10;99.90;;;;;;5052958;28;20698;-67
2023/09/28 06:55:30;;;;;;;14.32;13.82;;;16.20;99.90;;;;;;5066204;28;20207;-66
2023/09/28 06:57:57;;;;;;;14.18;13.65;;;16.30;99.90;;;;;;5072757;28;20246;-66
2023/09/28 07:00:24;;;;;;;14.43;13.90;;;16.40;99.90;;;;;;5070161;28;20246;-66
2023/09/28 07:02:54;;;;;;;14.60;14.10;;;16.50;99.90;;;;;;5073352;28;20240;-65
2023/09/28 07:05:22;;;;;;;16.67;16.07;;;16.80;99.90;;;;;;5068781;28;20243;-66
2023/09/28 07:07:50;;;;;;;14.32;13.82;;;16.80;99.90;;;;;;5071633;28;20692;-67
2023/09/28 07:10:17;;;;;;;15.07;14.57;;;16.80;99.90;;;;;;5069746;28;20309;-66
2023/09/28 07:12:44;;;;;;;15.23;14.73;;;17.00;99.90;;;;;;5070681;28;20215;-66
2023/09/28 07:15:11;;;;;;;16.25;15.65;;;17.10;99.90;;;;;;5071434;28;20207;-67
2023/09/28 07:17:38;;;;;;;15.17;14.67;;;17.20;99.90;;;;;;5070890;28;20293;-66
2023/09/28 07:20:07;;;;;;;14.60;14.10;;;17.20;99.90;;;;;;5070195;28;20226;-66
2023/09/28 07:22:34;;;;;;;16.93;16.33;;;17.40;99.90;;;;;;5071490;28;20592;-67
2023/09/28 07:25:03;;;;;;;17.43;16.70;;;17.50;99.90;;;;;;5071489;28;20214;-67
2023/09/28 07:27:32;;;;;;;15.37;14.77;;;17.60;99.90;;;;;;5064691;28;20242;-66
2023/09/28 07:29:59;;;;;;;15.02;14.52;;;17.80;99.90;;;;;;5070978;28;20230;-67
2023/09/28 07:32:29;;;;;;;14.85;14.35;;;18.00;99.90;;;;;;5070358;28;20239;-67
2023/09/28 07:34:56;;;;;;;15.63;15.03;;;18.00;99.90;;;;;;5071266;28;20230;-67
2023/09/28 07:37:24;;;;;;;15.20;14.70;;;18.20;99.90;;;;;;5068015;28;20212;-66
2023/09/28 07:39:51;;;;;;;15.30;14.80;;;18.40;99.90;;;;;;5061932;28;20206;-66
2023/09/28 07:42:19;;;;;;;13.77;13.27;;;18.50;99.90;;;;;;5070701;28;20294;-67
2023/09/28 07:44:47;;;;;;;13.65;13.15;;;18.60;99.90;;;;;;5072429;28;20203;-66
2023/09/28 07:47:14;;;;;;;14.10;13.60;;;18.80;99.90;;;;;;5065000;28;20675;-66
2023/09/28 07:49:40;;;;;;;13.32;12.82;;;18.90;99.90;;;;;;5071463;28;20313;-66
2023/09/28 07:52:09;;;;;;;13.80;13.30;;;19.00;99.90;;;;;;5066143;28;20234;-67
2023/09/28 07:54:37;;;;;;;13.93;13.43;;;19.10;99.90;;;;;;5051526;28;20211;-66
2023/09/28 07:57:05;;;;;;;14.93;14.43;;;19.20;99.90;;;;;;5050677;28;20250;-66
2023/09/28 07:59:33;;;;;;;15.50;15.00;;;19.40;99.90;;;;;;5054260;28;20218;-65
2023/09/28 08:02:00;;;;;;;16.15;15.57;;;19.50;99.90;;;;;;5050916;28;20234;-65
2023/09/28 08:04:27;;;;;;;15.60;15.10;;;19.60;99.90;;;;;;5050538;28;20670;-66
2023/09/28 08:06:55;;;;;;;16.73;16.13;;;19.70;99.90;;;;;;5064557;28;20328;-65
2023/09/28 08:09:23;;;;;;;18.75;18.13;;;19.90;99.90;;;;;;5073532;28;20211;-66
2023/09/28 08:11:50;;;;;;;18.52;17.85;;;20.00;99.90;;;;;;5074337;28;20253;-65
2023/09/28 08:14:17;;;;;;;19.65;18.95;;;20.10;99.90;;;;;;5074809;28;20217;-67
2023/09/28 08:16:45;;;;;;;16.48;15.88;;;20.30;99.90;;;;;;5074084;28;20294;-67
2023/09/28 08:19:13;;;;;;;15.82;15.23;;;20.50;99.90;;;;;;5073566;28;20264;-67
2023/09/28 08:21:40;;;;;;;15.77;15.25;;;20.70;99.90;;;;;;5073856;28;21017;-65
2023/09/28 08:24:08;;;;;;;16.63;16.02;;;20.80;99.90;;;;;;5074739;28;20218;-66
2023/09/28 08:26:35;;;;;;;16.77;16.17;;;20.90;99.90;;;;;;5074219;28;20218;-66
2023/09/28 08:29:03;;;;;;;16.63;16.02;;;21.10;99.90;;;;;;5072963;28;20253;-65
2023/09/28 08:31:30;;;;;;;15.60;15.05;;;21.30;99.90;;;;;;5074525;28;20615;-67
2023/09/28 08:33:59;;;;;;;15.00;14.50;;;21.50;99.90;;;;;;5074967;28;20222;-67
2023/09/28 08:36:27;;;;;;;16.27;15.68;;;21.70;99.90;;;;;;5073948;28;20203;-69
2023/09/28 08:38:54;;;;;;;15.05;14.55;;;21.80;99.90;;;;;;5073709;28;20520;-68
2023/09/28 08:41:31;;;;;;;15.68;15.18;;;22.00;99.90;;;;;;5073016;28;20238;-67
2023/09/28 08:44:04;;;;;;;16.40;15.80;;;22.20;99.90;;;;;;5070354;28;20302;-67
2023/09/28 08:46:32;;;;;;;16.88;16.27;;;22.40;99.90;;;;;;5073618;28;20677;-66
2023/09/28 08:49:02;;;;;;;17.92;17.23;;;22.50;99.90;;;;;;5071405;28;20208;-66
2023/09/28 08:51:31;;;;;;;19.23;18.52;;;22.60;99.90;;;;;;5053456;28;20227;-67
2023/09/28 08:54:03;;;;;;;18.75;18.05;;;22.60;99.90;;;;;;5054370;28;20291;-66
2023/09/28 08:56:31;;;;;;;20.33;19.63;;;22.70;99.90;;;;;;5062619;28;20211;-65
2023/09/28 08:58:59;;;;;;;21.02;20.23;;;22.60;99.90;;;;;;5072650;28;20215;-66
2023/09/28 09:01:27;;;;;;;21.73;20.92;;;22.60;99.90;;;;;;5072910;28;20723;-66
2023/09/28 09:03:55;;;;;;;27.77;26.67;;;22.50;99.90;;;;;;5070169;28;20301;-66
2023/09/28 09:06:24;;;;;;;19.48;18.77;;;22.50;99.90;;;;;;5074527;28;20584;-66
2023/09/28 09:08:51;;;;;;;18.30;17.60;;;22.50;99.90;;;;;;5074349;28;20311;-66
2023/09/28 09:11:19;;;;;;;16.58;15.98;;;22.60;99.90;;;;;;5075270;28;20327;-65
2023/09/28 09:13:50;;;;;;;16.70;16.10;;;22.70;99.90;;;;;;5076859;28;20215;-66
2023/09/28 09:16:17;;;;;;;18.20;17.50;;;22.80;99.90;;;;;;5071487;28;20226;-66
2023/09/28 09:18:44;;;;;;;18.75;17.92;;;22.90;99.90;;;;;;5055681;28;20309;-69
2023/09/28 09:21:11;;;;;;;18.10;17.45;;;23.00;99.90;;;;;;5073191;28;20227;-66
2023/09/28 09:23:39;;;;;;;18.85;18.15;;;23.20;99.90;;;;;;5073656;28;20215;-66
2023/09/28 09:26:17;;;;;;;18.33;17.70;;;23.30;99.90;;;;;;5073260;28;20298;-65
2023/09/28 09:28:46;;;;;;;18.65;17.92;;;23.40;99.90;;;;;;5073076;28;20215;-66
2023/09/28 09:31:14;;;;;;;20.65;19.95;;;23.60;99.90;;;;;;5073090;28;20705;-66
2023/09/28 09:33:42;;;;;;;22.90;22.10;;;23.60;99.90;;;;;;5072812;28;20260;-66
2023/09/28 09:36:08;;;;;;;21.33;20.52;;;23.60;99.90;;;;;;5072968;28;20203;-67
2023/09/28 09:38:35;;;;;;;22.98;22.15;;;23.70;99.90;;;;;;5072589;28;20211;-67
2023/09/28 09:41:05;;;;;;;20.02;19.33;;;23.80;99.90;;;;;;5053320;28;20310;-68
2023/09/28 09:43:34;;;;;;;19.10;18.40;;;23.90;99.90;;;;;;5053362;28;20214;-67
2023/09/28 09:46:04;;;;;;;18.83;18.20;;;23.90;99.90;;;;;;5058036;28;20215;-67
2023/09/28 09:48:37;;;;;;;21.80;21.02;;;23.90;99.90;;;;;;5072315;28;20203;-67
2023/09/28 09:51:08;;;;;;;20.60;19.90;;;24.00;99.90;;;;;;5053199;28;20244;-66
2023/09/28 09:53:36;;;;;;;24.70;23.83;;;24.00;99.90;;;;;;5054272;28;20215;-68
2023/09/28 09:56:05;;;;;;;27.52;26.52;;;24.20;99.90;;;;;;5067539;28;20581;-67
2023/09/28 09:58:39;;;;;;;20.88;20.10;;;24.30;99.90;;;;;;5068683;28;20298;-67
2023/09/28 10:01:10;;;;;;;26.08;25.17;;;24.30;99.90;;;;;;5072940;28;20223;-68
2023/09/28 10:03:39;;;;;;;15.95;15.35;;;24.40;99.90;;;;;;5091725;28;20235;-66
2023/09/28 10:06:06;;;;;;;17.70;17.10;;;24.40;99.90;;;;;;5090331;28;20207;-67
2023/09/28 10:08:34;;;;;;;18.08;17.38;;;24.60;99.90;;;;;;5088572;28;20231;-66
2023/09/28 10:11:04;;;;;;;18.45;17.83;;;24.70;99.90;;;;;;5066897;28;20232;-67
2023/09/28 10:13:32;;;;;;;17.35;16.75;;;24.80;99.90;;;;;;5055515;28;20214;-67
2023/09/28 10:16:02;;;;;;;17.15;16.55;;;24.90;99.90;;;;;;5051963;28;20218;-68
2023/09/28 10:18:30;;;;;;;18.20;17.60;;;24.90;99.90;;;;;;5053041;28;20219;-68
2023/09/28 10:20:59;;;;;;;18.60;17.90;;;25.00;99.90;;;;;;5054050;28;20223;-67
2023/09/28 10:23:27;;;;;;;20.48;19.77;;;24.80;99.90;;;;;;5061219;28;20218;-67
2023/09/28 10:25:57;;;;;;;20.17;19.45;;;24.90;99.90;;;;;;5069028;28;20208;-67
2023/09/28 10:28:24;;;;;;;19.50;18.80;;;25.00;99.90;;;;;;5072122;28;20296;-67
2023/09/28 10:31:07;;;;;;;21.33;20.52;;;25.00;99.90;;;;;;5054198;28;20314;-66
2023/09/28 10:33:34;;;;;;;18.95;18.25;;;25.00;99.90;;;;;;5052715;28;20233;-67
2023/09/28 10:36:14;;;;;;;17.90;17.20;;;24.90;99.90;;;;;;5057205;28;20640;-68
2023/09/28 10:38:42;;;;;;;19.58;18.88;;;25.10;99.90;;;;;;5068821;28;20302;-67
2023/09/28 10:41:10;;;;;;;20.77;20.08;;;25.20;99.90;;;;;;5073237;28;20322;-67
2023/09/28 10:43:40;;;;;;;19.95;19.25;;;25.30;99.90;;;;;;5073495;28;20230;-67
2023/09/28 10:46:09;;;;;;;18.45;17.75;;;25.30;99.90;;;;;;5072755;28;20215;-67
2023/09/28 10:48:40;;;;;;;18.33;17.60;;;25.30;99.90;;;;;;5071835;28;20280;-66
2023/09/28 10:51:12;;;;;;;17.70;17.10;;;25.40;99.90;;;;;;5052331;28;20625;-66
2023/09/28 10:53:39;;;;;;;17.92;17.33;;;25.50;99.90;;;;;;5052653;28;20212;-67
2023/09/28 10:56:07;;;;;;;19.48;18.77;;;25.60;99.90;;;;;;5052024;28;20215;-67
2023/09/28 10:58:34;;;;;;;21.00;20.30;;;25.80;99.90;;;;;;5053060;28;20269;-66
2023/09/28 11:01:06;;;;;;;18.45;17.75;;;25.80;99.90;;;;;;5071144;28;20251;-70
2023/09/28 11:03:35;;;;;;;19.23;18.52;;;25.80;99.90;;;;;;5073041;28;20269;-67
2023/09/28 11:06:03;;;;;;;59.15;56.25;;;25.90;99.90;;;;;;5073773;28;20594;-67
2023/09/28 11:08:30;;;;;;;19.60;18.90;;;25.90;99.90;;;;;;5072392;28;20203;-68
2023/09/28 11:10:58;;;;;;;17.58;16.95;;;25.90;99.90;;;;;;5055679;28;20246;-67
2023/09/28 11:13:26;;;;;;;17.90;17.30;;;26.00;99.90;;;;;;5052083;28;20208;-67
2023/09/28 11:15:53;;;;;;;19.77;19.08;;;26.00;99.90;;;;;;5050991;28;20216;-68
2023/09/28 11:18:21;;;;;;;20.05;19.17;;;26.00;99.90;;;;;;5067578;28;20234;-67
2023/09/28 11:20:49;;;;;;;23.88;22.90;;;26.00;99.90;;;;;;5069553;28;20601;-58
2023/09/28 11:23:16;;;;;;;27.92;26.75;;;25.90;99.90;;;;;;5070992;28;20218;-57
2023/09/28 11:25:43;;;;;;;28.90;27.77;;;25.50;99.90;;;;;;5072801;28;20219;-57
2023/09/28 11:28:11;;;;;;;16.95;16.35;;;25.00;99.90;;;;;;5073607;28;20203;-64
2023/09/28 11:30:38;;;;;;;16.60;16.00;;;25.30;99.90;;;;;;5071131;28;20566;-65
2023/09/28 11:33:06;;;;;;;16.85;16.25;;;25.60;99.90;;;;;;5072405;28;20211;-65
2023/09/28 11:35:34;;;;;;;18.05;17.45;;;25.80;99.90;;;;;;5071473;28;20215;-64
2023/09/28 11:38:03;;;;;;;17.73;17.13;;;26.00;99.90;;;;;;5066056;28;20231;-64
2023/09/28 11:40:31;;;;;;;19.27;18.58;;;26.30;99.90;;;;;;5073107;28;20235;-68
2023/09/28 11:43:01;;;;;;;17.15;16.55;;;26.40;99.90;;;;;;5080417;28;20233;-65
2023/09/28 11:45:28;;;;;;;19.00;18.30;;;26.30;99.90;;;;;;5080605;28;20298;-64
2023/09/28 11:47:55;;;;;;;18.23;17.52;;;26.40;99.90;;;;;;5079396;28;20215;-65
2023/09/28 11:50:23;;;;;;;20.08;19.27;;;26.30;99.90;;;;;;5070021;28;20735;-66
2023/09/28 11:52:52;;;;;;;19.42;18.73;;;26.30;99.90;;;;;;5072532;28;20207;-66
2023/09/28 11:55:20;;;;;;;18.75;18.05;;;26.20;99.90;;;;;;5072064;28;20211;-65
2023/09/28 11:57:48;;;;;;;17.40;16.80;;;26.20;99.90;;;;;;5070872;28;20603;-66
2023/09/28 12:00:18;;;;;;;19.83;19.13;;;26.30;99.90;;;;;;5069941;28;20253;-65
2023/09/28 12:02:46;;;;;;;19.50;18.80;;;26.40;99.90;;;;;;5070654;28;20279;-66
2023/09/28 12:05:14;;;;;;;17.13;16.50;;;26.50;99.90;;;;;;5070287;28;20218;-66
2023/09/28 12:07:41;;;;;;;18.70;18.00;;;26.40;99.90;;;;;;5071002;28;20241;-66
2023/09/28 12:10:10;;;;;;;18.40;17.73;;;26.60;99.90;;;;;;5061977;28;20208;-66
2023/09/28 12:12:39;;;;;;;21.50;20.75;;;26.70;99.90;;;;;;5067989;28;20297;-66
2023/09/28 12:15:10;;;;;;;16.70;16.10;;;26.90;99.90;;;;;;5057766;28;20214;-66
2023/09/28 12:17:38;;;;;;;19.35;18.60;;;27.00;99.90;;;;;;5066348;28;20210;-66
2023/09/28 12:20:06;;;;;;;19.45;18.75;;;27.00;99.90;;;;;;5062526;28;20298;-65
2023/09/28 12:22:33;;;;;;;20.02;19.33;;;27.10;99.90;;;;;;5071291;28;20565;-64
2023/09/28 12:25:00;;;;;;;19.35;18.65;;;27.20;99.90;;;;;;5070862;28;20218;-66
2023/09/28 12:27:27;;;;;;;20.10;19.40;;;27.30;99.90;;;;;;5071249;28;20314;-66
2023/09/28 12:29:55;;;;;;;19.33;18.63;;;27.30;99.90;;;;;;5069983;28;20199;-65
2023/09/28 12:32:22;;;;;;;18.42;17.75;;;27.40;99.90;;;;;;5067480;28;20233;-66